TimeEDT,TemperatureF,Dew PointF,Humidity,Sea Level PressureIn,VisibilityMPH,Wind Direction,Wind SpeedMPH,Gust SpeedMPH,PrecipitationIn,Events,Conditions,WindDirDegrees,DateUTC
12:56 AM,48.0,46.0,93,30.05,10.0,Calm,Calm,-,N/A,,Clear,0,2013-04-06 04:56:00
1:56 AM,46.9,45.0,93,30.06,10.0,Calm,Calm,-,N/A,,Clear,0,2013-04-06 05:56:00
2:56 AM,46.9,44.1,90,30.06,10.0,Calm,Calm,-,N/A,,Clear,0,2013-04-06 06:56:00
3:56 AM,48.0,44.1,86,30.08,10.0,Calm,Calm,-,N/A,,Clear,0,2013-04-06 07:56:00
4:56 AM,46.9,43.0,86,30.09,10.0,Calm,Calm,-,N/A,,Clear,0,2013-04-06 08:56:00
5:56 AM,46.9,43.0,86,30.11,10.0,NW,3.5,-,N/A,,Clear,320,2013-04-06 09:56:00
6:56 AM,46.9,44.1,90,30.13,10.0,NW,3.5,-,N/A,,Clear,320,2013-04-06 10:56:00
7:56 AM,46.9,43.0,86,30.14,10.0,Calm,Calm,-,N/A,,Clear,0,2013-04-06 11:56:00
8:56 AM,54.0,46.0,75,30.16,10.0,North,5.8,-,N/A,,Clear,360,2013-04-06 12:56:00
9:56 AM,57.9,46.9,67,30.17,10.0,NE,6.9,-,N/A,,Clear,50,2013-04-06 13:56:00
10:05 AM,60.8,46.4,59,30.17,10.0,NNE,6.9,-,N/A,,Partly Cloudy,30,2013-04-06 14:05:00
10:56 AM,64.0,46.0,52,30.19,10.0,NE,8.1,-,N/A,,Clear,40,2013-04-06 14:56:00
11:56 AM,66.9,44.1,44,30.19,10.0,East,9.2,-,N/A,,Clear,80,2013-04-06 15:56:00
12:56 PM,69.1,39.0,33,30.20,10.0,East,9.2,-,N/A,,Clear,90,2013-04-06 16:56:00
1:56 PM,70.0,39.9,33,30.20,10.0,SE,13.8,23.0,N/A,,Clear,140,2013-04-06 17:56:00
2:56 PM,68.0,36.0,31,30.18,10.0,ESE,18.4,-,N/A,,Clear,120,2013-04-06 18:56:00
3:56 PM,66.0,43.0,43,30.18,10.0,SE,19.6,-,N/A,,Clear,140,2013-04-06 19:56:00
4:56 PM,64.0,41.0,43,30.18,10.0,SE,17.3,25.3,N/A,,Clear,130,2013-04-06 20:56:00
5:56 PM,63.0,46.0,54,30.19,10.0,ESE,12.7,-,N/A,,Clear,120,2013-04-06 21:56:00
6:56 PM,62.1,46.9,58,30.19,10.0,ESE,10.4,-,N/A,,Clear,120,2013-04-06 22:56:00
7:56 PM,59.0,51.1,75,30.21,10.0,ESE,5.8,-,N/A,,Clear,120,2013-04-06 23:56:00
8:56 PM,57.9,52.0,81,30.22,10.0,SE,4.6,-,N/A,,Clear,130,2013-04-07 00:56:00
9:56 PM,57.0,51.1,81,30.23,10.0,ESE,3.5,-,N/A,,Clear,120,2013-04-07 01:56:00
10:56 PM,55.0,48.9,80,30.24,10.0,Calm,Calm,-,N/A,,Clear,0,2013-04-07 02:56:00
11:56 PM,52.0,48.9,89,30.23,10.0,Calm,Calm,-,N/A,,Clear,0,2013-04-07 03:56:00